Relevés horaires Florennes (Belgique)


Relevés horaires à Florennes - Mardi 02 Mars 2021
Heure UTC1 Température [°C] Vent [km/h] Hum. [%] Pres.4 [hPa] Visi. [Km] Nébu. [octa] Préc.5 [mm] Cond.
2m. Res. Ros. Dir.2 Vit. Moy. Raf.3
23:00 8.1 8.1 1.7 NNO 1.9 -- 1.9 64 1029.7(0.0/3h) 15 -- -- --
22:00 9.8 9.8 1.8 NNO 1.9 -- 3.7 57 1029.7(0.1/3h) 20 1/8 -- --
21:00 10.7 10.7 2.0 NNO 1.9 -- 5.6 55 1029.5(0.3/3h) 20 1/8 -- --
20:00 11.9 11.9 1.9 S 3.7 -- 5.6 50 1029.4(0.6/3h) 20 1/8 -- --
19:00 12.1 12.1 1.1 NNO 1.9 -- 1.9 47 1029.4(0.9/3h) 20 1/8 -- --
18:00 12.5 12.5 0.3 NNO 1.9 -- 11.1 43 1029(0.5/3h) 20 1/8 -- --
17:00 14.5 14.5 1.0 S 3.7 -- 11.1 40 1028.4(0.1/3h) 20 0/8 -- --
16:00 15.9 15.9 0.2 S 7.4 -- 11.1 34 1027.9(-0.5/3h) 20 0/8 -- --
15:00 16.9 16.9 1.1 SSE 7.4 -- 11.1 34 1027.9(-0.8/3h) 20 0/8 -- --
14:00 16.4 16.4 0.4 SSE 7.4 -- 11.1 34 1028(-1.0/3h) 20 0/8 -- --
13:00 15.3 15.3 2.4 S 5.6 -- 11.1 42 1028.5(-0.7/3h) 20 0/8 -- --
12:00 13.9 13.9 2.6 SSE 5.6 -- 9.3 46 1029(-0.3/3h) 15 0/8 -- --
11:00 11.8 11.6 2.4 SSE 5.6 -- 9.3 52 1029.7(0.2/3h) 15 0/8 -- --
10:00 9.5 8.6 1.3 SSE 7.4 -- 9.3 57 1030(0.6/3h) 15 0/8 -- --
09:00 7.4 6.6 0.5 SE 5.6 -- 7.4 62 1030.2(0.8/3h) 15 0/8 -- --
08:00 3.0 3.0 0.1 ENE 3.7 -- 5.6 81 1030.5(0.5/3h) 15 0/8 -- --
07:00 3.4 2 -0.8 E 5.6 -- 5.6 74 1030.2(0.2/3h) 18 0/8 -- --
06:00 3.2 3.2 -1.0 E 3.7 -- 5.6 74 1029.9(0.0/3h) 20 0/8 -- --
05:00 2.9 2.9 -1.1 E 3.7 -- 5.6 75 1030(-0.3/3h) 19 -- -- --
04:00 2.5 1 -1.1 E 5.6 -- 5.6 77 1030(-0.5/3h) 19 -- -- --
03:00 4.6 4.6 -1.1 NNO 1.9 -- 3.7 66 1029.7(-0.4/3h) 20 -- -- --
02:00 4.6 4.6 -1.0 NNO 1.9 -- 3.7 67 1030(0.0/3h) 20 -- -- --
01:00 4.2 4.2 -1.1 NNO 1.9 -- 3.7 68 1030.2(0.1/3h) 20 -- -- --
00:00 5.0 5.0 -1.0 E 3.7 -- 9.3 65 1030.2(0.1/3h) 20 -- -- --

1 Coordinated Universal Time. Actuellement il est 17:00 locale et 16:00 UTC.

2 Le vent souffle depuis la direction indiquée vers la direction oposée.

3 Les rafales max. sont disponible 40 min après l'heure du relevé.

4 Pour les stations d'altitude (plus de 600m) le géopotentiel du niveau le plus proche de la pression obligatoire est indiqué.

5 Les stations disposant d'un diffuseur peuvent indiquer "trace". Cela signifie que des précipitations ont touchés le sol mais que la quantité est inférieure à 0.1 mm.

Récapitulatif de la journée
Température [°C] Vent [km/h] Ensoleillement4 [h] Precipitations totale5 [mm] Pression [Hpa]
Min1 Max.2 Moy.3 Max. Min Max.
1.7 17.1 0 11.1 0 h 0 min 0 1027.9 1030.5

1 Température minimale relevée entre 18:00 UTC la veille et 18:00 UTC le jour donné.

2 Température maximale relevée entre 06:00 UTC le jour donné et 06:00 UTC le lendemain.

3 Vent moyen de la journée basé sur les relevés horaires.

4 Ensoleillement en heures relevé entre 06:00 UTC la veille et 06:00 UTC le jour donné.

5 Précipitations totales tombées entre 06:00 UTC la jour donné et 06:00 UTC le lendemain.

Graphiques horaires